sensor_id;sensor_type;location;lat;lon;timestamp;temperature;humidity
12819;DHT22;6474;53.474;9.894;2023-04-25T00:01:56;9.10;72.10
12819;DHT22;6474;53.474;9.894;2023-04-25T00:04:24;9.00;72.00
12819;DHT22;6474;53.474;9.894;2023-04-25T00:06:54;9.00;72.10
12819;DHT22;6474;53.474;9.894;2023-04-25T00:09:22;9.00;72.00
12819;DHT22;6474;53.474;9.894;2023-04-25T00:11:50;9.00;72.10
12819;DHT22;6474;53.474;9.894;2023-04-25T00:14:17;8.90;71.90
12819;DHT22;6474;53.474;9.894;2023-04-25T00:16:45;8.90;71.90
12819;DHT22;6474;53.474;9.894;2023-04-25T00:19:13;8.90;72.00
12819;DHT22;6474;53.474;9.894;2023-04-25T00:21:40;8.80;71.80
12819;DHT22;6474;53.474;9.894;2023-04-25T00:24:09;8.80;71.80
12819;DHT22;6474;53.474;9.894;2023-04-25T00:26:37;8.70;71.70
12819;DHT22;6474;53.474;9.894;2023-04-25T00:29:05;8.70;71.70
12819;DHT22;6474;53.474;9.894;2023-04-25T00:31:33;8.70;71.70
12819;DHT22;6474;53.474;9.894;2023-04-25T00:34:01;8.60;71.60
12819;DHT22;6474;53.474;9.894;2023-04-25T00:36:29;8.60;71.60
12819;DHT22;6474;53.474;9.894;2023-04-25T00:38:57;8.60;71.60
12819;DHT22;6474;53.474;9.894;2023-04-25T00:41:26;8.60;71.60
12819;DHT22;6474;53.474;9.894;2023-04-25T00:43:54;8.60;71.60
12819;DHT22;6474;53.474;9.894;2023-04-25T00:46:22;8.60;71.60
12819;DHT22;6474;53.474;9.894;2023-04-25T00:48:50;8.60;71.60
12819;DHT22;6474;53.474;9.894;2023-04-25T00:51:20;8.60;71.60
12819;DHT22;6474;53.474;9.894;2023-04-25T00:53:49;8.60;71.60
12819;DHT22;6474;53.474;9.894;2023-04-25T00:56:18;8.60;71.60
12819;DHT22;6474;53.474;9.894;2023-04-25T00:58:48;8.60;71.60
12819;DHT22;6474;53.474;9.894;2023-04-25T01:01:17;8.50;71.50
12819;DHT22;6474;53.474;9.894;2023-04-25T01:03:46;8.50;71.50
12819;DHT22;6474;53.474;9.894;2023-04-25T01:06:17;8.50;71.60
12819;DHT22;6474;53.474;9.894;2023-04-25T01:08:45;8.40;71.90
12819;DHT22;6474;53.474;9.894;2023-04-25T01:11:12;8.50;72.00
12819;DHT22;6474;53.474;9.894;2023-04-25T01:13:41;8.50;72.00
12819;DHT22;6474;53.474;9.894;2023-04-25T01:16:10;8.40;71.70
12819;DHT22;6474;53.474;9.894;2023-04-25T01:18:38;8.40;71.80
12819;DHT22;6474;53.474;9.894;2023-04-25T01:21:09;8.40;72.10
12819;DHT22;6474;53.474;9.894;2023-04-25T01:23:38;8.40;72.20
12819;DHT22;6474;53.474;9.894;2023-04-25T01:26:06;8.40;72.30
12819;DHT22;6474;53.474;9.894;2023-04-25T01:28:36;8.40;72.30
12819;DHT22;6474;53.474;9.894;2023-04-25T01:31:06;8.40;72.30
12819;DHT22;6474;53.474;9.894;2023-04-25T01:33:34;8.30;72.20
12819;DHT22;6474;53.474;9.894;2023-04-25T01:36:02;8.30;72.20
12819;DHT22;6474;53.474;9.894;2023-04-25T01:38:32;8.30;72.40
12819;DHT22;6474;53.474;9.894;2023-04-25T01:40:59;8.30;72.50
12819;DHT22;6474;53.474;9.894;2023-04-25T01:43:27;8.20;72.40
12819;DHT22;6474;53.474;9.894;2023-04-25T01:45:56;8.20;72.40
12819;DHT22;6474;53.474;9.894;2023-04-25T01:48:24;8.20;72.40
12819;DHT22;6474;53.474;9.894;2023-04-25T01:50:52;8.20;72.40
12819;DHT22;6474;53.474;9.894;2023-04-25T01:53:20;8.20;72.40
12819;DHT22;6474;53.474;9.894;2023-04-25T01:55:50;8.20;72.40
12819;DHT22;6474;53.474;9.894;2023-04-25T01:58:18;8.20;72.40
12819;DHT22;6474;53.474;9.894;2023-04-25T02:00:46;8.10;72.70
12819;DHT22;6474;53.474;9.894;2023-04-25T02:03:14;8.10;72.30
12819;DHT22;6474;53.474;9.894;2023-04-25T02:05:42;8.10;72.30
12819;DHT22;6474;53.474;9.894;2023-04-25T02:08:09;8.10;72.40
12819;DHT22;6474;53.474;9.894;2023-04-25T02:10:37;8.00;72.30
12819;DHT22;6474;53.474;9.894;2023-04-25T02:13:07;8.00;72.40
12819;DHT22;6474;53.474;9.894;2023-04-25T02:15:35;8.00;72.40
12819;DHT22;6474;53.474;9.894;2023-04-25T02:18:03;7.90;72.30
12819;DHT22;6474;53.474;9.894;2023-04-25T02:20:33;7.90;72.30
12819;DHT22;6474;53.474;9.894;2023-04-25T02:23:00;7.90;72.30
12819;DHT22;6474;53.474;9.894;2023-04-25T02:25:29;7.90;72.40
12819;DHT22;6474;53.474;9.894;2023-04-25T02:27:56;7.90;72.40
12819;DHT22;6474;53.474;9.894;2023-04-25T02:30:25;7.80;72.20
12819;DHT22;6474;53.474;9.894;2023-04-25T02:32:53;7.80;72.30
12819;DHT22;6474;53.474;9.894;2023-04-25T02:35:21;7.80;72.30
12819;DHT22;6474;53.474;9.894;2023-04-25T02:37:49;7.80;72.40
12819;DHT22;6474;53.474;9.894;2023-04-25T02:40:17;7.80;72.40
12819;DHT22;6474;53.474;9.894;2023-04-25T02:42:45;7.70;72.30
12819;DHT22;6474;53.474;9.894;2023-04-25T02:45:13;7.70;72.40
12819;DHT22;6474;53.474;9.894;2023-04-25T02:47:42;7.70;72.30
12819;DHT22;6474;53.474;9.894;2023-04-25T02:50:10;7.80;72.40
12819;DHT22;6474;53.474;9.894;2023-04-25T02:52:38;7.70;72.30
12819;DHT22;6474;53.474;9.894;2023-04-25T02:55:06;7.70;72.30
12819;DHT22;6474;53.474;9.894;2023-04-25T02:57:34;7.70;72.30
12819;DHT22;6474;53.474;9.894;2023-04-25T03:00:02;7.70;72.30
12819;DHT22;6474;53.474;9.894;2023-04-25T03:02:31;7.70;72.20
12819;DHT22;6474;53.474;9.894;2023-04-25T03:05:01;7.70;72.20
12819;DHT22;6474;53.474;9.894;2023-04-25T03:07:29;7.60;72.00
12819;DHT22;6474;53.474;9.894;2023-04-25T03:09:57;7.60;72.10
12819;DHT22;6474;53.474;9.894;2023-04-25T03:12:25;7.50;72.00
12819;DHT22;6474;53.474;9.894;2023-04-25T03:14:53;7.50;72.00
12819;DHT22;6474;53.474;9.894;2023-04-25T03:17:20;7.50;72.10
12819;DHT22;6474;53.474;9.894;2023-04-25T03:19:48;7.40;72.00
12819;DHT22;6474;53.474;9.894;2023-04-25T03:22:17;7.40;71.90
12819;DHT22;6474;53.474;9.894;2023-04-25T03:24:45;7.30;71.80
12819;DHT22;6474;53.474;9.894;2023-04-25T03:27:13;7.30;71.80
12819;DHT22;6474;53.474;9.894;2023-04-25T03:29:41;7.20;71.80
12819;DHT22;6474;53.474;9.894;2023-04-25T03:32:09;7.20;71.90
12819;DHT22;6474;53.474;9.894;2023-04-25T03:34:37;7.10;71.90
12819;DHT22;6474;53.474;9.894;2023-04-25T03:37:04;7.00;71.80
12819;DHT22;6474;53.474;9.894;2023-04-25T03:39:33;6.90;72.00
12819;DHT22;6474;53.474;9.894;2023-04-25T03:42:01;6.90;72.10
12819;DHT22;6474;53.474;9.894;2023-04-25T03:44:29;6.80;72.20
12819;DHT22;6474;53.474;9.894;2023-04-25T03:46:57;6.80;72.30
12819;DHT22;6474;53.474;9.894;2023-04-25T03:49:25;6.80;72.40
12819;DHT22;6474;53.474;9.894;2023-04-25T03:51:53;6.90;72.50
12819;DHT22;6474;53.474;9.894;2023-04-25T03:54:21;6.90;72.40
12819;DHT22;6474;53.474;9.894;2023-04-25T03:56:50;6.90;72.30
12819;DHT22;6474;53.474;9.894;2023-04-25T03:59:18;6.90;72.20
12819;DHT22;6474;53.474;9.894;2023-04-25T04:01:46;6.90;72.00
12819;DHT22;6474;53.474;9.894;2023-04-25T04:04:13;6.90;71.90
12819;DHT22;6474;53.474;9.894;2023-04-25T04:06:42;6.90;71.90
12819;DHT22;6474;53.474;9.894;2023-04-25T04:09:09;6.90;71.90
12819;DHT22;6474;53.474;9.894;2023-04-25T04:11:39;6.90;72.00
12819;DHT22;6474;53.474;9.894;2023-04-25T04:14:08;6.90;72.00
12819;DHT22;6474;53.474;9.894;2023-04-25T04:16:36;6.90;72.00
12819;DHT22;6474;53.474;9.894;2023-04-25T04:19:04;6.90;72.00
12819;DHT22;6474;53.474;9.894;2023-04-25T04:21:32;6.90;72.00
12819;DHT22;6474;53.474;9.894;2023-04-25T04:24:01;6.90;71.90
12819;DHT22;6474;53.474;9.894;2023-04-25T04:26:29;6.90;71.80
12819;DHT22;6474;53.474;9.894;2023-04-25T04:28:59;6.90;71.70
12819;DHT22;6474;53.474;9.894;2023-04-25T04:31:28;6.90;71.70
12819;DHT22;6474;53.474;9.894;2023-04-25T04:33:56;6.90;71.70
12819;DHT22;6474;53.474;9.894;2023-04-25T04:36:24;6.90;71.60
12819;DHT22;6474;53.474;9.894;2023-04-25T04:38:53;7.00;71.60
12819;DHT22;6474;53.474;9.894;2023-04-25T04:41:20;7.00;71.50
12819;DHT22;6474;53.474;9.894;2023-04-25T04:43:48;7.00;71.50
12819;DHT22;6474;53.474;9.894;2023-04-25T04:46:16;6.90;71.40
12819;DHT22;6474;53.474;9.894;2023-04-25T04:48:46;6.90;71.40
12819;DHT22;6474;53.474;9.894;2023-04-25T04:51:14;6.90;71.50
12819;DHT22;6474;53.474;9.894;2023-04-25T04:53:41;6.90;71.60
12819;DHT22;6474;53.474;9.894;2023-04-25T04:56:09;6.90;71.70
12819;DHT22;6474;53.474;9.894;2023-04-25T04:58:37;7.00;71.80
12819;DHT22;6474;53.474;9.894;2023-04-25T05:01:04;7.10;71.80
12819;DHT22;6474;53.474;9.894;2023-04-25T05:03:32;7.10;71.70
12819;DHT22;6474;53.474;9.894;2023-04-25T05:06:02;7.20;71.70
12819;DHT22;6474;53.474;9.894;2023-04-25T05:08:30;7.20;71.60
12819;DHT22;6474;53.474;9.894;2023-04-25T05:10:58;7.20;71.50
12819;DHT22;6474;53.474;9.894;2023-04-25T05:13:25;7.30;71.50
12819;DHT22;6474;53.474;9.894;2023-04-25T05:15:53;7.40;71.60
12819;DHT22;6474;53.474;9.894;2023-04-25T05:18:21;7.40;71.60
12819;DHT22;6474;53.474;9.894;2023-04-25T05:20:49;7.40;71.50
12819;DHT22;6474;53.474;9.894;2023-04-25T05:23:18;7.40;71.40
12819;DHT22;6474;53.474;9.894;2023-04-25T05:25:46;7.40;71.50
12819;DHT22;6474;53.474;9.894;2023-04-25T05:28:14;7.40;71.50
12819;DHT22;6474;53.474;9.894;2023-04-25T05:30:42;7.40;71.50
12819;DHT22;6474;53.474;9.894;2023-04-25T05:33:09;7.40;71.50
12819;DHT22;6474;53.474;9.894;2023-04-25T05:35:37;7.40;71.50
12819;DHT22;6474;53.474;9.894;2023-04-25T05:38:05;7.30;71.50
12819;DHT22;6474;53.474;9.894;2023-04-25T05:40:34;7.30;71.50
12819;DHT22;6474;53.474;9.894;2023-04-25T05:43:02;7.30;71.60
12819;DHT22;6474;53.474;9.894;2023-04-25T05:45:30;7.30;71.70
12819;DHT22;6474;53.474;9.894;2023-04-25T05:47:58;7.30;71.80
12819;DHT22;6474;53.474;9.894;2023-04-25T05:50:26;7.30;71.80
12819;DHT22;6474;53.474;9.894;2023-04-25T05:52:54;7.40;71.90
12819;DHT22;6474;53.474;9.894;2023-04-25T05:55:21;7.50;71.90
12819;DHT22;6474;53.474;9.894;2023-04-25T05:57:50;7.60;71.90
12819;DHT22;6474;53.474;9.894;2023-04-25T06:00:18;7.60;71.80
12819;DHT22;6474;53.474;9.894;2023-04-25T06:02:48;7.70;71.80
12819;DHT22;6474;53.474;9.894;2023-04-25T06:05:16;7.70;71.50
12819;DHT22;6474;53.474;9.894;2023-04-25T06:07:44;7.80;71.50
12819;DHT22;6474;53.474;9.894;2023-04-25T06:10:12;7.90;71.40
12819;DHT22;6474;53.474;9.894;2023-04-25T06:12:40;7.90;70.90
12819;DHT22;6474;53.474;9.894;2023-04-25T06:15:10;8.00;71.00
12819;DHT22;6474;53.474;9.894;2023-04-25T06:17:53;8.00;71.00
12819;DHT22;6474;53.474;9.894;2023-04-25T06:20:21;8.00;71.00
12819;DHT22;6474;53.474;9.894;2023-04-25T06:22:50;8.00;71.00
12819;DHT22;6474;53.474;9.894;2023-04-25T06:25:19;8.00;71.00
12819;DHT22;6474;53.474;9.894;2023-04-25T06:27:47;8.00;71.00
12819;DHT22;6474;53.474;9.894;2023-04-25T06:30:17;8.00;71.00
12819;DHT22;6474;53.474;9.894;2023-04-25T06:32:49;8.00;71.00
12819;DHT22;6474;53.474;9.894;2023-04-25T06:35:16;8.00;71.00
12819;DHT22;6474;53.474;9.894;2023-04-25T06:37:44;8.00;71.70
12819;DHT22;6474;53.474;9.894;2023-04-25T06:40:12;7.90;71.30
12819;DHT22;6474;53.474;9.894;2023-04-25T06:42:40;8.00;71.90
12819;DHT22;6474;53.474;9.894;2023-04-25T06:45:08;8.00;71.80
12819;DHT22;6474;53.474;9.894;2023-04-25T06:47:38;8.00;71.90
12819;DHT22;6474;53.474;9.894;2023-04-25T06:50:06;8.10;72.00
12819;DHT22;6474;53.474;9.894;2023-04-25T06:52:34;8.20;71.90
12819;DHT22;6474;53.474;9.894;2023-04-25T06:55:02;8.20;71.50
12819;DHT22;6474;53.474;9.894;2023-04-25T06:57:31;8.30;71.30
12819;DHT22;6474;53.474;9.894;2023-04-25T06:59:59;8.50;71.50
12819;DHT22;6474;53.474;9.894;2023-04-25T07:02:28;8.50;71.50
12819;DHT22;6474;53.474;9.894;2023-04-25T07:04:57;8.60;71.60
12819;DHT22;6474;53.474;9.894;2023-04-25T07:07:26;8.60;71.70
12819;DHT22;6474;53.474;9.894;2023-04-25T07:09:54;8.70;71.70
12819;DHT22;6474;53.474;9.894;2023-04-25T07:12:22;8.70;71.80
12819;DHT22;6474;53.474;9.894;2023-04-25T07:14:50;8.70;71.70
12819;DHT22;6474;53.474;9.894;2023-04-25T07:17:17;8.70;71.70
12819;DHT22;6474;53.474;9.894;2023-04-25T07:19:45;8.70;71.70
12819;DHT22;6474;53.474;9.894;2023-04-25T07:22:14;8.90;71.90
12819;DHT22;6474;53.474;9.894;2023-04-25T07:24:42;9.00;72.00
12819;DHT22;6474;53.474;9.894;2023-04-25T07:27:13;9.00;72.00
12819;DHT22;6474;53.474;9.894;2023-04-25T07:29:42;9.00;72.00
12819;DHT22;6474;53.474;9.894;2023-04-25T07:32:10;9.00;72.00
12819;DHT22;6474;53.474;9.894;2023-04-25T07:34:40;9.00;72.00
12819;DHT22;6474;53.474;9.894;2023-04-25T07:37:08;8.90;71.90
12819;DHT22;6474;53.474;9.894;2023-04-25T07:39:37;8.90;72.00
12819;DHT22;6474;53.474;9.894;2023-04-25T07:42:05;9.00;72.00
12819;DHT22;6474;53.474;9.894;2023-04-25T07:44:34;9.00;72.00
12819;DHT22;6474;53.474;9.894;2023-04-25T07:47:05;9.10;72.20
12819;DHT22;6474;53.474;9.894;2023-04-25T07:49:34;9.20;72.20
12819;DHT22;6474;53.474;9.894;2023-04-25T07:52:03;9.30;72.30
12819;DHT22;6474;53.474;9.894;2023-04-25T07:54:32;9.40;72.40
12819;DHT22;6474;53.474;9.894;2023-04-25T07:57:02;9.40;72.40
12819;DHT22;6474;53.474;9.894;2023-04-25T07:59:30;9.50;72.60
12819;DHT22;6474;53.474;9.894;2023-04-25T08:02:02;9.60;72.60
12819;DHT22;6474;53.474;9.894;2023-04-25T08:04:29;9.70;72.30
12819;DHT22;6474;53.474;9.894;2023-04-25T08:06:58;9.70;72.10
12819;DHT22;6474;53.474;9.894;2023-04-25T08:09:26;9.80;72.10
12819;DHT22;6474;53.474;9.894;2023-04-25T08:11:54;9.90;72.10
12819;DHT22;6474;53.474;9.894;2023-04-25T08:14:23;10.10;71.00
12819;DHT22;6474;53.474;9.894;2023-04-25T08:16:51;10.10;70.70
12819;DHT22;6474;53.474;9.894;2023-04-25T08:19:18;10.20;70.70
12819;DHT22;6474;53.474;9.894;2023-04-25T08:21:46;10.30;70.80
12819;DHT22;6474;53.474;9.894;2023-04-25T08:24:14;10.30;70.50
12819;DHT22;6474;53.474;9.894;2023-04-25T08:26:42;10.20;70.50
12819;DHT22;6474;53.474;9.894;2023-04-25T08:29:10;10.20;70.40
12819;DHT22;6474;53.474;9.894;2023-04-25T08:31:39;10.20;70.30
12819;DHT22;6474;53.474;9.894;2023-04-25T08:34:08;10.10;70.30
12819;DHT22;6474;53.474;9.894;2023-04-25T08:36:36;10.10;70.40
12819;DHT22;6474;53.474;9.894;2023-04-25T08:39:06;10.00;70.30
12819;DHT22;6474;53.474;9.894;2023-04-25T08:41:35;10.10;70.50
12819;DHT22;6474;53.474;9.894;2023-04-25T08:44:03;10.00;70.30
12819;DHT22;6474;53.474;9.894;2023-04-25T08:46:32;10.00;70.30
12819;DHT22;6474;53.474;9.894;2023-04-25T08:49:02;10.10;70.50
12819;DHT22;6474;53.474;9.894;2023-04-25T08:51:31;10.10;70.70
12819;DHT22;6474;53.474;9.894;2023-04-25T08:54:08;10.20;70.80
12819;DHT22;6474;53.474;9.894;2023-04-25T08:56:57;10.20;70.90
12819;DHT22;6474;53.474;9.894;2023-04-25T08:59:25;10.30;71.00
12819;DHT22;6474;53.474;9.894;2023-04-25T09:01:55;10.30;70.80
12819;DHT22;6474;53.474;9.894;2023-04-25T09:04:24;10.20;70.30
12819;DHT22;6474;53.474;9.894;2023-04-25T09:06:52;10.00;69.70
12819;DHT22;6474;53.474;9.894;2023-04-25T09:09:20;9.50;70.30
12819;DHT22;6474;53.474;9.894;2023-04-25T09:11:48;9.10;70.70
12819;DHT22;6474;53.474;9.894;2023-04-25T09:14:19;8.70;71.30
12819;DHT22;6474;53.474;9.894;2023-04-25T09:16:58;8.50;71.50
12819;DHT22;6474;53.474;9.894;2023-04-25T09:19:29;8.30;72.20
12819;DHT22;6474;53.474;9.894;2023-04-25T09:22:07;8.30;72.60
12819;DHT22;6474;53.474;9.894;2023-04-25T09:24:36;8.30;72.80
12819;DHT22;6474;53.474;9.894;2023-04-25T09:27:05;8.30;73.00
12819;DHT22;6474;53.474;9.894;2023-04-25T09:29:34;8.40;73.10
12819;DHT22;6474;53.474;9.894;2023-04-25T09:32:11;8.60;73.10
12819;DHT22;6474;53.474;9.894;2023-04-25T09:34:42;8.70;73.00
12819;DHT22;6474;53.474;9.894;2023-04-25T09:37:10;9.00;73.10
12819;DHT22;6474;53.474;9.894;2023-04-25T09:39:39;9.30;72.30
12819;DHT22;6474;53.474;9.894;2023-04-25T09:42:09;9.50;72.50
12819;DHT22;6474;53.474;9.894;2023-04-25T09:44:36;9.60;72.30
12819;DHT22;6474;53.474;9.894;2023-04-25T09:47:09;9.70;72.20
12819;DHT22;6474;53.474;9.894;2023-04-25T09:49:40;9.80;72.00
12819;DHT22;6474;53.474;9.894;2023-04-25T09:52:14;9.80;71.80
12819;DHT22;6474;53.474;9.894;2023-04-25T09:54:43;9.80;71.70
12819;DHT22;6474;53.474;9.894;2023-04-25T09:57:12;9.70;71.70
12819;DHT22;6474;53.474;9.894;2023-04-25T09:59:44;9.70;71.90
12819;DHT22;6474;53.474;9.894;2023-04-25T10:02:14;9.70;72.20
12819;DHT22;6474;53.474;9.894;2023-04-25T10:04:45;9.70;72.20
12819;DHT22;6474;53.474;9.894;2023-04-25T10:07:15;9.80;72.40
12819;DHT22;6474;53.474;9.894;2023-04-25T10:09:47;9.80;72.30
12819;DHT22;6474;53.474;9.894;2023-04-25T10:12:16;9.90;72.30
12819;DHT22;6474;53.474;9.894;2023-04-25T10:14:44;10.00;71.00
12819;DHT22;6474;53.474;9.894;2023-04-25T10:17:14;10.10;71.10
12819;DHT22;6474;53.474;9.894;2023-04-25T10:19:44;10.20;70.90
12819;DHT22;6474;53.474;9.894;2023-04-25T10:22:16;10.30;70.70
12819;DHT22;6474;53.474;9.894;2023-04-25T10:24:46;10.40;70.60
12819;DHT22;6474;53.474;9.894;2023-04-25T10:27:14;10.40;70.40
12819;DHT22;6474;53.474;9.894;2023-04-25T10:29:42;10.30;70.10
12819;DHT22;6474;53.474;9.894;2023-04-25T10:32:10;10.30;70.10
12819;DHT22;6474;53.474;9.894;2023-04-25T10:34:40;10.30;70.30
12819;DHT22;6474;53.474;9.894;2023-04-25T10:37:10;10.40;70.50
12819;DHT22;6474;53.474;9.894;2023-04-25T10:39:39;10.40;70.30
12819;DHT22;6474;53.474;9.894;2023-04-25T10:42:08;10.20;69.70
12819;DHT22;6474;53.474;9.894;2023-04-25T10:44:37;10.00;69.30
12819;DHT22;6474;53.474;9.894;2023-04-25T10:47:07;9.70;70.70
12819;DHT22;6474;53.474;9.894;2023-04-25T10:49:37;9.60;71.10
12819;DHT22;6474;53.474;9.894;2023-04-25T10:52:18;9.60;71.40
12819;DHT22;6474;53.474;9.894;2023-04-25T10:54:46;9.50;71.60
12819;DHT22;6474;53.474;9.894;2023-04-25T10:57:27;9.50;71.70
12819;DHT22;6474;53.474;9.894;2023-04-25T10:59:59;9.40;71.70
12819;DHT22;6474;53.474;9.894;2023-04-25T11:02:28;9.30;71.80
12819;DHT22;6474;53.474;9.894;2023-04-25T11:04:56;9.30;71.90
12819;DHT22;6474;53.474;9.894;2023-04-25T11:07:32;9.20;72.00
12819;DHT22;6474;53.474;9.894;2023-04-25T11:10:03;9.20;72.30
12819;DHT22;6474;53.474;9.894;2023-04-25T11:12:31;9.30;72.30
12819;DHT22;6474;53.474;9.894;2023-04-25T11:15:00;9.40;72.50
12819;DHT22;6474;53.474;9.894;2023-04-25T11:17:28;9.40;72.10
12819;DHT22;6474;53.474;9.894;2023-04-25T11:19:57;9.40;71.70
12819;DHT22;6474;53.474;9.894;2023-04-25T11:22:27;9.50;71.50
12819;DHT22;6474;53.474;9.894;2023-04-25T11:24:55;9.60;71.50
12819;DHT22;6474;53.474;9.894;2023-04-25T11:27:22;9.70;71.40
12819;DHT22;6474;53.474;9.894;2023-04-25T11:29:51;9.70;71.20
12819;DHT22;6474;53.474;9.894;2023-04-25T11:32:20;9.90;71.20
12819;DHT22;6474;53.474;9.894;2023-04-25T11:34:50;10.10;69.90
12819;DHT22;6474;53.474;9.894;2023-04-25T11:37:20;10.20;69.70
12819;DHT22;6474;53.474;9.894;2023-04-25T11:39:49;10.30;69.60
12819;DHT22;6474;53.474;9.894;2023-04-25T11:42:17;10.50;69.80
12819;DHT22;6474;53.474;9.894;2023-04-25T11:44:44;10.40;69.40
12819;DHT22;6474;53.474;9.894;2023-04-25T11:47:12;10.30;69.30
12819;DHT22;6474;53.474;9.894;2023-04-25T11:49:40;10.10;69.20
12819;DHT22;6474;53.474;9.894;2023-04-25T11:52:08;10.00;69.20
12819;DHT22;6474;53.474;9.894;2023-04-25T11:54:36;9.90;70.70
12819;DHT22;6474;53.474;9.894;2023-04-25T11:57:05;9.80;71.80
12819;DHT22;6474;53.474;9.894;2023-04-25T11:59:33;9.90;71.30
12819;DHT22;6474;53.474;9.894;2023-04-25T12:02:01;9.90;71.30
12819;DHT22;6474;53.474;9.894;2023-04-25T12:04:30;10.10;70.10
12819;DHT22;6474;53.474;9.894;2023-04-25T12:06:58;10.20;69.70
12819;DHT22;6474;53.474;9.894;2023-04-25T12:09:29;10.30;69.60
12819;DHT22;6474;53.474;9.894;2023-04-25T12:11:59;10.40;69.50
12819;DHT22;6474;53.474;9.894;2023-04-25T12:14:32;10.50;69.60
12819;DHT22;6474;53.474;9.894;2023-04-25T12:17:01;10.70;69.70
12819;DHT22;6474;53.474;9.894;2023-04-25T12:19:32;10.80;69.70
12819;DHT22;6474;53.474;9.894;2023-04-25T12:22:01;11.00;69.90
12819;DHT22;6474;53.474;9.894;2023-04-25T12:24:32;11.30;69.80
12819;DHT22;6474;53.474;9.894;2023-04-25T12:27:05;11.50;69.80
12819;DHT22;6474;53.474;9.894;2023-04-25T12:29:36;11.50;69.50
12819;DHT22;6474;53.474;9.894;2023-04-25T12:32:15;11.40;69.10
12819;DHT22;6474;53.474;9.894;2023-04-25T12:34:43;11.20;68.80
12819;DHT22;6474;53.474;9.894;2023-04-25T12:37:11;11.00;68.70
12819;DHT22;6474;53.474;9.894;2023-04-25T12:39:39;10.80;68.80
12819;DHT22;6474;53.474;9.894;2023-04-25T12:42:07;10.50;69.10
12819;DHT22;6474;53.474;9.894;2023-04-25T12:44:39;10.40;69.40
12819;DHT22;6474;53.474;9.894;2023-04-25T12:47:07;10.40;69.80
12819;DHT22;6474;53.474;9.894;2023-04-25T12:49:35;10.50;69.90
12819;DHT22;6474;53.474;9.894;2023-04-25T12:52:03;10.60;69.80
12819;DHT22;6474;53.474;9.894;2023-04-25T12:54:31;10.70;69.60
12819;DHT22;6474;53.474;9.894;2023-04-25T12:56:59;10.80;69.60
12819;DHT22;6474;53.474;9.894;2023-04-25T12:59:29;11.00;69.70
12819;DHT22;6474;53.474;9.894;2023-04-25T13:01:58;11.00;69.50
12819;DHT22;6474;53.474;9.894;2023-04-25T13:04:26;10.90;69.30
12819;DHT22;6474;53.474;9.894;2023-04-25T13:06:54;11.00;69.50
12819;DHT22;6474;53.474;9.894;2023-04-25T13:09:22;11.00;69.40
12819;DHT22;6474;53.474;9.894;2023-04-25T13:11:50;11.20;69.60
12819;DHT22;6474;53.474;9.894;2023-04-25T13:14:22;11.30;69.40
12819;DHT22;6474;53.474;9.894;2023-04-25T13:16:50;11.30;69.30
12819;DHT22;6474;53.474;9.894;2023-04-25T13:19:20;11.40;69.20
12819;DHT22;6474;53.474;9.894;2023-04-25T13:21:47;11.30;68.90
12819;DHT22;6474;53.474;9.894;2023-04-25T13:24:15;11.20;69.10
12819;DHT22;6474;53.474;9.894;2023-04-25T13:26:43;11.10;69.00
12819;DHT22;6474;53.474;9.894;2023-04-25T13:29:11;10.90;68.80
12819;DHT22;6474;53.474;9.894;2023-04-25T13:31:39;10.70;68.80
12819;DHT22;6474;53.474;9.894;2023-04-25T13:34:06;10.50;69.10
12819;DHT22;6474;53.474;9.894;2023-04-25T13:36:36;10.40;69.50
12819;DHT22;6474;53.474;9.894;2023-04-25T13:39:04;10.40;69.60
12819;DHT22;6474;53.474;9.894;2023-04-25T13:41:32;10.30;69.60
12819;DHT22;6474;53.474;9.894;2023-04-25T13:44:00;10.40;70.00
12819;DHT22;6474;53.474;9.894;2023-04-25T13:46:27;10.60;69.90
12819;DHT22;6474;53.474;9.894;2023-04-25T13:49:15;10.70;69.70
12819;DHT22;6474;53.474;9.894;2023-04-25T13:51:44;10.80;69.40
12819;DHT22;6474;53.474;9.894;2023-04-25T13:54:12;10.90;69.20
12819;DHT22;6474;53.474;9.894;2023-04-25T13:56:40;10.80;68.90
12819;DHT22;6474;53.474;9.894;2023-04-25T13:59:09;10.80;69.10
12819;DHT22;6474;53.474;9.894;2023-04-25T14:01:37;10.70;68.90
12819;DHT22;6474;53.474;9.894;2023-04-25T14:04:05;10.50;68.60
12819;DHT22;6474;53.474;9.894;2023-04-25T14:06:32;10.20;68.60
12819;DHT22;6474;53.474;9.894;2023-04-25T14:09:02;10.00;68.70
12819;DHT22;6474;53.474;9.894;2023-04-25T14:11:31;9.80;70.90
12819;DHT22;6474;53.474;9.894;2023-04-25T14:13:58;9.70;70.30
12819;DHT22;6474;53.474;9.894;2023-04-25T14:16:26;9.60;70.70
12819;DHT22;6474;53.474;9.894;2023-04-25T14:18:54;9.60;71.00
12819;DHT22;6474;53.474;9.894;2023-04-25T14:21:22;9.70;71.20
12819;DHT22;6474;53.474;9.894;2023-04-25T14:23:50;9.80;71.20
12819;DHT22;6474;53.474;9.894;2023-04-25T14:26:20;10.10;70.00
12819;DHT22;6474;53.474;9.894;2023-04-25T14:28:47;10.20;69.60
12819;DHT22;6474;53.474;9.894;2023-04-25T14:31:15;10.30;69.30
12819;DHT22;6474;53.474;9.894;2023-04-25T14:33:43;10.40;69.00
12819;DHT22;6474;53.474;9.894;2023-04-25T14:36:12;10.40;68.80
12819;DHT22;6474;53.474;9.894;2023-04-25T14:38:40;10.30;68.60
12819;DHT22;6474;53.474;9.894;2023-04-25T14:41:08;10.10;68.10
12819;DHT22;6474;53.474;9.894;2023-04-25T14:43:38;9.80;69.10
12819;DHT22;6474;53.474;9.894;2023-04-25T14:46:08;9.60;69.30
12819;DHT22;6474;53.474;9.894;2023-04-25T14:48:36;9.60;70.00
12819;DHT22;6474;53.474;9.894;2023-04-25T14:51:04;9.60;70.10
12819;DHT22;6474;53.474;9.894;2023-04-25T14:53:32;9.70;70.20
12819;DHT22;6474;53.474;9.894;2023-04-25T14:56:00;9.80;70.20
12819;DHT22;6474;53.474;9.894;2023-04-25T14:58:28;10.00;69.00
12819;DHT22;6474;53.474;9.894;2023-04-25T15:00:57;10.00;68.70
12819;DHT22;6474;53.474;9.894;2023-04-25T15:03:25;10.10;68.50
12819;DHT22;6474;53.474;9.894;2023-04-25T15:05:54;10.00;68.20
12819;DHT22;6474;53.474;9.894;2023-04-25T15:08:22;10.00;68.10
12819;DHT22;6474;53.474;9.894;2023-04-25T15:10:50;9.90;69.20
12819;DHT22;6474;53.474;9.894;2023-04-25T15:13:18;9.80;69.30
12819;DHT22;6474;53.474;9.894;2023-04-25T15:15:46;9.70;69.50
12819;DHT22;6474;53.474;9.894;2023-04-25T15:18:20;9.60;69.50
12819;DHT22;6474;53.474;9.894;2023-04-25T15:20:49;9.50;69.70
12819;DHT22;6474;53.474;9.894;2023-04-25T15:23:17;9.40;69.80
12819;DHT22;6474;53.474;9.894;2023-04-25T15:25:46;9.40;70.20
12819;DHT22;6474;53.474;9.894;2023-04-25T15:28:14;9.50;70.50
12819;DHT22;6474;53.474;9.894;2023-04-25T15:30:42;9.60;70.50
12819;DHT22;6474;53.474;9.894;2023-04-25T15:33:11;9.80;70.50
12819;DHT22;6474;53.474;9.894;2023-04-25T15:35:41;9.90;70.20
12819;DHT22;6474;53.474;9.894;2023-04-25T15:38:09;9.90;69.80
12819;DHT22;6474;53.474;9.894;2023-04-25T15:40:37;10.00;68.60
12819;DHT22;6474;53.474;9.894;2023-04-25T15:43:05;10.00;68.40
12819;DHT22;6474;53.474;9.894;2023-04-25T15:45:33;10.00;68.40
12819;DHT22;6474;53.474;9.894;2023-04-25T15:48:03;10.00;68.30
12819;DHT22;6474;53.474;9.894;2023-04-25T15:50:32;10.00;68.20
12819;DHT22;6474;53.474;9.894;2023-04-25T15:53:01;10.00;68.30
12819;DHT22;6474;53.474;9.894;2023-04-25T15:55:33;9.90;69.40
12819;DHT22;6474;53.474;9.894;2023-04-25T15:58:01;9.80;69.40
12819;DHT22;6474;53.474;9.894;2023-04-25T16:00:29;9.70;69.30
12819;DHT22;6474;53.474;9.894;2023-04-25T16:02:57;9.60;69.30
12819;DHT22;6474;53.474;9.894;2023-04-25T16:05:25;9.40;69.30
12819;DHT22;6474;53.474;9.894;2023-04-25T16:07:53;9.30;69.60